createdAt,value
2022-11-10T00:01:34.410Z,2.80
2022-11-10T00:04:05.876Z,3.50
2022-11-10T00:06:37.477Z,4.93
2022-11-10T00:09:08.603Z,4.13
2022-11-10T00:11:40.212Z,3.73
2022-11-10T00:14:30.525Z,4.53
2022-11-10T00:17:05.946Z,5.03
2022-11-10T00:19:37.524Z,3.90
2022-11-10T00:22:09.128Z,5.10
2022-11-10T00:24:41.247Z,4.73
2022-11-10T00:27:12.748Z,2.63
2022-11-10T00:29:46.758Z,4.53
2022-11-10T00:32:17.982Z,4.43
2022-11-10T00:34:49.668Z,3.47
2022-11-10T00:37:20.757Z,4.33
2022-11-10T00:39:52.165Z,4.63
2022-11-10T00:42:23.666Z,4.73
2022-11-10T00:44:57.057Z,3.63
2022-11-10T00:47:27.628Z,7.10
2022-11-10T00:49:58.585Z,4.10
2022-11-10T00:52:30.482Z,4.87
2022-11-10T00:55:01.243Z,5.50
2022-11-10T00:57:32.528Z,4.27
2022-11-10T01:00:05.820Z,4.63
2022-11-10T01:02:36.401Z,3.93
2022-11-10T01:05:07.122Z,6.20
2022-11-10T01:07:37.911Z,4.70
2022-11-10T01:10:09.698Z,6.33
2022-11-10T01:12:40.319Z,3.60
2022-11-10T01:15:13.884Z,6.00
2022-11-10T01:17:45.276Z,4.87
2022-11-10T01:20:15.854Z,3.53
2022-11-10T01:22:46.456Z,3.93
2022-11-10T01:25:18.198Z,4.20
2022-11-10T01:27:48.857Z,5.43
2022-11-10T01:30:21.590Z,5.43
2022-11-10T01:32:52.375Z,3.60
2022-11-10T01:35:23.392Z,6.40
2022-11-10T01:37:55.613Z,6.20
2022-11-10T01:40:26.472Z,6.60
2022-11-10T01:43:00.135Z,7.47
2022-11-10T01:45:48.501Z,4.33
2022-11-10T01:48:24.445Z,4.50
2022-11-10T01:50:56.703Z,4.03
2022-11-10T01:53:31.142Z,4.93
2022-11-10T01:56:02.503Z,4.30
2022-11-10T01:58:40.674Z,7.47
2022-11-10T02:01:13.789Z,3.67
2022-11-10T02:03:49.064Z,4.23
2022-11-10T02:06:22.217Z,4.60
2022-11-10T02:08:55.416Z,3.80
2022-11-10T02:11:27.460Z,5.60
2022-11-10T02:13:58.435Z,7.33
2022-11-10T02:16:31.347Z,6.77
2022-11-10T02:19:13.727Z,5.93
2022-11-10T02:21:46.923Z,7.87
2022-11-10T02:24:18.200Z,6.43
2022-11-10T02:26:53.798Z,5.63
2022-11-10T02:29:26.400Z,7.13
2022-11-10T02:32:00.104Z,11.17
2022-11-10T02:34:31.973Z,5.73
2022-11-10T02:37:05.739Z,7.93
2022-11-10T02:39:37.000Z,8.17
2022-11-10T02:42:11.260Z,15.37
2022-11-10T02:44:44.394Z,21.63
2022-11-10T02:47:15.530Z,25.73
2022-11-10T02:49:47.463Z,45.57
2022-11-10T02:52:20.554Z,35.47
2022-11-10T02:54:52.728Z,28.90
2022-11-10T02:57:23.877Z,19.80
2022-11-10T02:59:55.267Z,13.57
2022-11-10T03:02:32.094Z,13.70
2022-11-10T03:05:03.975Z,12.27
2022-11-10T03:07:37.081Z,9.60
2022-11-10T03:10:08.956Z,8.70
2022-11-10T03:12:39.990Z,9.93
2022-11-10T03:15:12.087Z,10.43
2022-11-10T03:17:44.208Z,10.77
2022-11-10T03:20:15.415Z,9.10
2022-11-10T03:22:48.754Z,12.10
2022-11-10T03:25:20.353Z,9.40
2022-11-10T03:27:51.413Z,6.10
2022-11-10T03:30:23.340Z,6.83
2022-11-10T03:32:55.372Z,6.27
2022-11-10T03:35:27.731Z,8.17
2022-11-10T03:38:01.473Z,4.43
2022-11-10T03:40:45.502Z,7.17
2022-11-10T03:43:24.710Z,5.63
2022-11-10T03:45:56.949Z,6.27
2022-11-10T03:48:31.762Z,8.77
2022-11-10T03:51:03.593Z,8.90
2022-11-10T03:53:36.633Z,6.47
2022-11-10T03:56:09.245Z,7.00
2022-11-10T03:58:41.562Z,7.47
2022-11-10T04:01:14.889Z,7.27
2022-11-10T04:03:51.094Z,9.30
2022-11-10T04:06:44.793Z,6.00
2022-11-10T04:09:18.718Z,7.47
2022-11-10T04:12:05.679Z,6.23
2022-11-10T04:14:53.319Z,8.50
2022-11-10T04:17:24.995Z,8.03
2022-11-10T04:19:56.987Z,7.73
2022-11-10T04:22:41.448Z,6.13
2022-11-10T04:25:16.748Z,9.83
2022-11-10T04:27:47.974Z,9.17
2022-11-10T04:30:20.476Z,9.20
2022-11-10T04:32:52.579Z,13.47
2022-11-10T04:35:23.726Z,10.90
2022-11-10T04:37:54.897Z,11.73
2022-11-10T04:40:29.944Z,11.67
2022-11-10T04:43:01.919Z,10.70
2022-11-10T04:45:32.999Z,9.93
2022-11-10T04:48:04.039Z,12.33
2022-11-10T04:50:38.906Z,11.83
2022-11-10T04:53:11.743Z,10.60
2022-11-10T04:55:47.995Z,10.97
2022-11-10T04:58:19.393Z,11.73
2022-11-10T05:00:50.697Z,12.37
2022-11-10T05:03:22.233Z,11.53
2022-11-10T05:05:53.617Z,11.10
2022-11-10T05:08:25.856Z,10.87
2022-11-10T05:10:59.716Z,11.13
2022-11-10T05:13:31.150Z,12.47
2022-11-10T05:16:02.648Z,9.87
2022-11-10T05:18:33.861Z,7.93
2022-11-10T05:21:05.030Z,7.77
2022-11-10T05:23:42.946Z,6.97
2022-11-10T05:26:21.171Z,6.83
2022-11-10T05:28:52.479Z,6.53
2022-11-10T05:31:23.893Z,7.07
2022-11-10T05:33:54.976Z,6.00
2022-11-10T05:36:26.068Z,6.30
2022-11-10T05:38:57.587Z,5.57
2022-11-10T05:41:32.198Z,5.27
2022-11-10T05:44:03.357Z,7.17
2022-11-10T05:46:35.076Z,3.87
2022-11-10T05:49:06.327Z,7.60
2022-11-10T05:51:38.094Z,16.77
2022-11-10T05:54:09.688Z,33.10
2022-11-10T05:56:43.577Z,33.07
2022-11-10T05:59:14.619Z,26.63
2022-11-10T06:01:45.636Z,17.20
2022-11-10T06:04:16.645Z,13.03
2022-11-10T06:06:48.228Z,8.07
2022-11-10T06:09:19.255Z,8.20
2022-11-10T06:11:52.558Z,8.43
2022-11-10T06:14:23.551Z,6.40
2022-11-10T06:16:55.370Z,7.80
2022-11-10T06:19:26.996Z,5.33
2022-11-10T06:22:05.019Z,6.00
2022-11-10T06:24:38.510Z,5.57
2022-11-10T06:27:14.293Z,5.17
2022-11-10T06:29:47.998Z,5.13
2022-11-10T06:32:19.102Z,5.13
2022-11-10T06:34:50.196Z,5.63
2022-11-10T06:37:22.316Z,5.17
2022-11-10T06:39:53.603Z,6.00
2022-11-10T06:42:28.621Z,6.77
2022-11-10T06:44:59.877Z,6.77
2022-11-10T06:47:30.952Z,4.87
2022-11-10T06:50:02.042Z,5.13
2022-11-10T06:52:33.495Z,7.03
2022-11-10T06:55:05.149Z,4.73
2022-11-10T06:57:44.802Z,6.70
2022-11-10T07:00:17.319Z,5.90
2022-11-10T07:02:48.372Z,4.37
2022-11-10T07:05:20.129Z,4.83
2022-11-10T07:07:51.974Z,2.87
2022-11-10T07:10:23.866Z,4.30
2022-11-10T07:13:01.675Z,3.00
2022-11-10T07:15:34.954Z,5.17
2022-11-10T07:18:07.464Z,3.90
2022-11-10T07:20:39.142Z,5.60
2022-11-10T07:23:11.964Z,5.63
2022-11-10T07:25:43.218Z,2.93
2022-11-10T07:28:16.848Z,3.10
2022-11-10T07:30:48.259Z,2.87
2022-11-10T07:33:20.692Z,5.23
2022-11-10T07:35:58.130Z,6.40
2022-11-10T07:38:29.842Z,3.43
2022-11-10T07:41:02.252Z,4.13
2022-11-10T07:43:35.403Z,5.50
2022-11-10T07:46:07.546Z,3.20
2022-11-10T07:48:39.083Z,4.17
2022-11-10T07:51:10.359Z,5.00
2022-11-10T07:53:42.507Z,3.23
2022-11-10T07:56:13.647Z,4.13
2022-11-10T07:58:47.018Z,3.40
2022-11-10T08:01:20.428Z,2.60
2022-11-10T08:03:51.658Z,3.57
2022-11-10T08:06:22.709Z,2.60
2022-11-10T08:08:54.862Z,3.00
2022-11-10T08:11:26.698Z,3.20
2022-11-10T08:14:00.797Z,3.70
2022-11-10T08:16:32.797Z,4.07
2022-11-10T08:19:04.098Z,4.53
2022-11-10T08:21:36.306Z,3.10
2022-11-10T08:24:08.461Z,3.00
2022-11-10T08:26:40.741Z,3.40
2022-11-10T08:29:14.824Z,3.20
2022-11-10T08:31:45.835Z,4.03
2022-11-10T08:34:17.289Z,3.73
2022-11-10T08:36:48.374Z,4.63
2022-11-10T08:39:37.525Z,3.60
2022-11-10T08:42:10.407Z,5.07
2022-11-10T08:44:43.524Z,4.43
2022-11-10T08:47:15.222Z,2.97
2022-11-10T08:49:47.079Z,3.13
2022-11-10T08:52:18.110Z,3.00
2022-11-10T08:54:52.998Z,3.53
2022-11-10T08:57:24.696Z,3.30
2022-11-10T08:59:58.188Z,2.40
2022-11-10T09:02:29.193Z,2.70
2022-11-10T09:05:00.568Z,2.90
2022-11-10T09:07:32.006Z,2.60
2022-11-10T09:10:07.242Z,2.73
2022-11-10T09:12:42.690Z,3.97
2022-11-10T09:15:16.992Z,4.93
2022-11-10T09:17:48.010Z,2.67
2022-11-10T09:20:19.535Z,5.97
2022-11-10T09:22:50.601Z,4.83
2022-11-10T09:25:21.750Z,6.70
2022-11-10T09:27:54.030Z,2.67
2022-11-10T09:30:27.752Z,2.60
2022-11-10T09:33:00.464Z,2.60
2022-11-10T09:35:32.216Z,3.10
2022-11-10T09:38:04.318Z,4.70
2022-11-10T09:40:49.727Z,3.40
2022-11-10T09:43:26.941Z,2.50
2022-11-10T09:46:04.790Z,5.20
2022-11-10T09:48:40.643Z,3.63
2022-11-10T09:51:15.260Z,3.47
2022-11-10T09:53:51.167Z,4.13
2022-11-10T09:56:29.863Z,3.37
2022-11-10T09:59:00.879Z,2.87
2022-11-10T10:01:44.553Z,5.33
2022-11-10T10:04:28.998Z,5.40
2022-11-10T10:07:11.557Z,4.00
2022-11-10T10:09:52.432Z,4.30
2022-11-10T10:12:42.140Z,4.77
2022-11-10T10:15:25.930Z,3.83
2022-11-10T10:18:12.285Z,4.87
2022-11-10T10:20:53.198Z,3.03
2022-11-10T10:23:54.449Z,4.17
2022-11-10T10:26:26.500Z,4.77
2022-11-10T10:28:58.862Z,4.20
2022-11-10T10:31:40.480Z,3.73
2022-11-10T10:34:18.714Z,4.30
2022-11-10T10:36:50.518Z,4.53
2022-11-10T10:39:31.238Z,3.77
2022-11-10T10:42:02.545Z,3.40
2022-11-10T10:44:33.565Z,3.90
2022-11-10T10:47:05.821Z,3.07
2022-11-10T10:49:40.722Z,3.00
2022-11-10T10:52:16.821Z,3.50
2022-11-10T10:54:48.310Z,4.27
2022-11-10T10:57:26.575Z,3.67
2022-11-10T11:00:18.283Z,3.57
2022-11-10T11:03:05.463Z,2.73
2022-11-10T11:05:42.729Z,3.83
2022-11-10T11:08:22.174Z,3.13
2022-11-10T11:10:53.526Z,3.47
2022-11-10T11:13:28.327Z,4.03
2022-11-10T11:16:05.581Z,3.30
2022-11-10T11:18:38.726Z,2.60
2022-11-10T11:21:29.256Z,3.63
2022-11-10T11:24:26.144Z,4.23
2022-11-10T11:27:02.850Z,3.80
2022-11-10T11:30:03.181Z,4.47
2022-11-10T11:32:59.686Z,4.00
2022-11-10T11:35:37.235Z,4.00
2022-11-10T11:38:15.934Z,3.20
2022-11-10T11:41:00.718Z,4.13
2022-11-10T11:43:53.972Z,5.13
2022-11-10T11:46:34.747Z,4.50
2022-11-10T11:49:24.680Z,3.10
2022-11-10T11:52:06.392Z,3.47
2022-11-10T11:54:51.720Z,3.67
2022-11-10T11:57:39.695Z,5.37
2022-11-10T12:00:15.622Z,4.20
2022-11-10T12:03:14.929Z,4.47
2022-11-10T12:05:56.316Z,4.63
2022-11-10T12:08:39.311Z,2.73
2022-11-10T12:11:24.058Z,5.07
2022-11-10T12:14:07.219Z,3.20
2022-11-10T12:16:39.834Z,2.67
2022-11-10T12:19:25.080Z,3.37
2022-11-10T12:21:59.047Z,3.80
2022-11-10T12:24:52.145Z,5.90
2022-11-10T12:27:30.255Z,3.43
2022-11-10T12:30:06.038Z,4.03
2022-11-10T12:32:44.177Z,3.60
2022-11-10T12:35:22.070Z,2.60
2022-11-10T12:37:56.959Z,3.23
2022-11-10T12:40:36.924Z,3.20
2022-11-10T12:43:21.842Z,4.40
2022-11-10T12:45:57.599Z,3.53
2022-11-10T12:48:32.858Z,4.63
2022-11-10T12:51:09.225Z,6.13
2022-11-10T12:53:43.650Z,4.30
2022-11-10T12:56:22.256Z,4.93
2022-11-10T12:59:28.230Z,4.53
2022-11-10T13:02:08.450Z,5.83
2022-11-10T13:04:39.588Z,4.97
2022-11-10T13:07:13.454Z,3.77
2022-11-10T13:09:47.907Z,4.60
2022-11-10T13:12:21.815Z,4.40
2022-11-10T13:14:57.297Z,3.17
2022-11-10T13:17:58.263Z,3.93
2022-11-10T13:20:53.002Z,4.10
2022-11-10T13:23:32.670Z,4.93
2022-11-10T13:26:07.191Z,4.43
2022-11-10T13:28:59.316Z,2.70
2022-11-10T13:31:56.015Z,3.37
2022-11-10T13:34:38.317Z,4.40
2022-11-10T13:37:44.567Z,3.30
2022-11-10T13:40:32.215Z,3.57
2022-11-10T13:43:30.749Z,4.43
2022-11-10T13:46:10.420Z,5.73
2022-11-10T13:49:29.474Z,4.73
2022-11-10T13:52:12.796Z,4.63
2022-11-10T13:55:15.969Z,4.10
2022-11-10T13:58:02.271Z,3.33
2022-11-10T14:00:36.230Z,4.47
2022-11-10T14:03:08.713Z,3.87
2022-11-10T14:06:17.175Z,4.30
2022-11-10T14:09:07.324Z,5.73
2022-11-10T14:11:43.681Z,5.10
2022-11-10T14:14:24.768Z,3.53
2022-11-10T14:16:56.485Z,5.13
2022-11-10T14:19:40.404Z,5.00
2022-11-10T14:22:25.419Z,7.27
2022-11-10T14:25:06.515Z,4.30
2022-11-10T14:27:41.054Z,4.13
2022-11-10T14:30:25.643Z,3.13
2022-11-10T14:33:03.414Z,4.47
2022-11-10T14:35:37.136Z,4.97
2022-11-10T14:38:10.176Z,4.50
2022-11-10T14:40:45.694Z,3.93
2022-11-10T14:43:31.484Z,3.97
2022-11-10T14:46:03.447Z,3.43
2022-11-10T14:48:37.085Z,4.27
2022-11-10T14:51:11.680Z,3.00
2022-11-10T14:53:44.860Z,3.80
2022-11-10T14:56:22.322Z,5.20
2022-11-10T14:58:54.227Z,4.27
2022-11-10T15:01:30.090Z,4.33
2022-11-10T15:04:01.441Z,4.30
2022-11-10T15:06:34.082Z,3.80
2022-11-10T15:09:17.608Z,4.93
2022-11-10T15:11:57.284Z,4.20
2022-11-10T15:14:44.013Z,7.03
2022-11-10T15:17:16.650Z,6.03
2022-11-10T15:19:57.868Z,5.73
2022-11-10T15:22:33.931Z,8.17
2022-11-10T15:25:11.870Z,6.27
2022-11-10T15:27:51.115Z,5.50
2022-11-10T15:30:26.028Z,4.87
2022-11-10T15:33:02.038Z,6.00
2022-11-10T15:35:35.052Z,4.60
2022-11-10T15:38:08.540Z,5.37
2022-11-10T15:40:47.875Z,4.53
2022-11-10T15:43:31.025Z,5.43
2022-11-10T15:46:07.103Z,4.80
2022-11-10T15:48:43.131Z,5.60
2022-11-10T15:51:19.019Z,4.33
2022-11-10T15:53:55.693Z,6.17
2022-11-10T15:56:27.289Z,6.07
2022-11-10T15:59:02.537Z,5.53
2022-11-10T16:01:35.499Z,5.97
2022-11-10T16:04:09.564Z,5.70
2022-11-10T16:06:44.483Z,5.17
2022-11-10T16:09:16.837Z,6.23
2022-11-10T16:11:48.992Z,3.47
2022-11-10T16:14:22.234Z,3.73
2022-11-10T16:16:53.758Z,5.30
2022-11-10T16:19:25.907Z,5.10
2022-11-10T16:21:57.108Z,4.67
2022-11-10T16:24:28.292Z,5.03
2022-11-10T16:27:01.793Z,5.63
2022-11-10T16:29:39.952Z,4.23
2022-11-10T16:32:13.057Z,5.07
2022-11-10T16:34:45.388Z,4.97
2022-11-10T16:37:16.794Z,4.57
2022-11-10T16:39:48.432Z,5.37
2022-11-10T16:42:20.013Z,4.03
2022-11-10T16:44:55.021Z,5.37
2022-11-10T16:47:26.094Z,5.43
2022-11-10T16:49:57.929Z,4.20
2022-11-10T16:52:29.791Z,6.00
2022-11-10T16:55:01.607Z,3.00
2022-11-10T16:57:38.738Z,9.33
2022-11-10T17:00:15.401Z,4.40
2022-11-10T17:02:51.328Z,5.63
2022-11-10T17:05:23.786Z,5.53
2022-11-10T17:07:56.221Z,5.50
2022-11-10T17:10:28.233Z,4.57
2022-11-10T17:13:05.409Z,5.10
2022-11-10T17:15:39.262Z,3.97
2022-11-10T17:18:12.211Z,5.17
2022-11-10T17:20:46.140Z,6.37
2022-11-10T17:23:19.294Z,5.67
2022-11-10T17:25:50.897Z,5.17
2022-11-10T17:28:23.915Z,5.10
2022-11-10T17:30:57.314Z,5.40
2022-11-10T17:33:28.389Z,4.97
2022-11-10T17:36:00.904Z,5.37
2022-11-10T17:38:34.834Z,6.97
2022-11-10T17:41:06.483Z,6.70
2022-11-10T17:43:40.425Z,8.20
2022-11-10T17:46:17.927Z,5.07
2022-11-10T17:48:51.721Z,4.93
2022-11-10T17:51:24.458Z,6.60
2022-11-10T17:53:56.071Z,6.63
2022-11-10T17:56:27.559Z,4.47
2022-11-10T17:58:59.482Z,6.03
2022-11-10T18:01:34.437Z,6.30
2022-11-10T18:04:06.321Z,7.13
2022-11-10T18:06:38.502Z,7.73
2022-11-10T18:09:11.084Z,6.67
2022-11-10T18:11:42.785Z,5.57
2022-11-10T18:14:15.526Z,5.97
2022-11-10T18:16:49.698Z,6.57
2022-11-10T18:19:21.812Z,6.03
2022-11-10T18:21:52.959Z,7.60
2022-11-10T18:24:24.554Z,6.87
2022-11-10T18:26:55.749Z,7.33
2022-11-10T18:29:26.695Z,5.57
2022-11-10T18:31:59.892Z,7.17
2022-11-10T18:34:32.331Z,5.47
2022-11-10T18:37:03.569Z,6.60
2022-11-10T18:39:34.644Z,5.40
2022-11-10T18:42:06.677Z,4.73
2022-11-10T18:44:38.567Z,4.90
2022-11-10T18:47:14.610Z,4.80
2022-11-10T18:49:45.909Z,5.33
2022-11-10T18:52:17.064Z,4.83
2022-11-10T18:54:48.166Z,5.40
2022-11-10T18:57:19.192Z,5.67
2022-11-10T18:59:51.696Z,5.50
2022-11-10T19:02:25.793Z,6.30
2022-11-10T19:04:57.292Z,4.97
2022-11-10T19:07:28.338Z,5.70
2022-11-10T19:09:59.827Z,3.60
2022-11-10T19:12:31.835Z,5.23
2022-11-10T19:15:03.098Z,6.13
2022-11-10T19:17:36.867Z,7.10
2022-11-10T19:20:11.496Z,3.33
2022-11-10T19:22:42.510Z,8.57
2022-11-10T19:25:15.598Z,6.93
2022-11-10T19:27:46.602Z,5.37
2022-11-10T19:30:18.101Z,6.90
2022-11-10T19:32:51.963Z,8.07
2022-11-10T19:35:23.520Z,4.23
2022-11-10T19:37:55.905Z,3.87
2022-11-10T19:40:27.139Z,5.43
2022-11-10T19:42:59.144Z,7.27
2022-11-10T19:45:30.227Z,4.97
2022-11-10T19:48:03.945Z,4.73
2022-11-10T19:50:35.672Z,7.97
2022-11-10T19:53:06.918Z,5.53
2022-11-10T19:55:40.116Z,5.47
2022-11-10T19:58:12.425Z,5.37
2022-11-10T20:00:44.267Z,4.93
2022-11-10T20:03:17.557Z,4.30
2022-11-10T20:05:49.092Z,6.23
2022-11-10T20:08:22.826Z,5.30
2022-11-10T20:10:54.466Z,5.70
2022-11-10T20:13:26.052Z,4.77
2022-11-10T20:15:57.116Z,8.50
2022-11-10T20:18:36.002Z,5.67
2022-11-10T20:21:08.502Z,6.73
2022-11-10T20:23:40.015Z,6.23
2022-11-10T20:26:14.736Z,8.30
2022-11-10T20:28:48.118Z,5.27
2022-11-10T20:31:22.112Z,5.27
2022-11-10T20:33:56.834Z,8.80
2022-11-10T20:36:29.679Z,6.27
2022-11-10T20:39:03.243Z,6.03
2022-11-10T20:41:34.484Z,5.40
2022-11-10T20:44:06.369Z,6.43
2022-11-10T20:46:54.060Z,5.80
2022-11-10T20:49:28.593Z,7.50
2022-11-10T20:52:00.823Z,7.53
2022-11-10T20:54:32.403Z,7.60
2022-11-10T20:57:03.383Z,6.37
2022-11-10T20:59:34.722Z,5.37
2022-11-10T21:02:06.008Z,6.67
2022-11-10T21:04:43.179Z,4.73
2022-11-10T21:07:14.758Z,9.77
2022-11-10T21:09:45.896Z,7.50
2022-11-10T21:12:34.234Z,6.20
2022-11-10T21:15:05.333Z,8.73
2022-11-10T21:17:41.527Z,5.67
2022-11-10T21:20:18.512Z,5.93
2022-11-10T21:22:49.990Z,9.27
2022-11-10T21:25:21.615Z,8.33
2022-11-10T21:27:52.711Z,7.87
2022-11-10T21:30:25.566Z,9.30
2022-11-10T21:32:56.618Z,6.53
2022-11-10T21:35:35.328Z,7.33
2022-11-10T21:38:09.137Z,7.60
2022-11-10T21:40:40.470Z,6.53
2022-11-10T21:43:12.547Z,6.93
2022-11-10T21:45:44.075Z,8.83
2022-11-10T21:48:14.869Z,5.67
2022-11-10T21:50:49.324Z,5.47
2022-11-10T21:53:20.757Z,5.93
2022-11-10T21:55:53.585Z,10.27
2022-11-10T21:58:25.725Z,5.23
2022-11-10T22:01:03.673Z,10.30
2022-11-10T22:03:37.203Z,6.27
2022-11-10T22:06:13.311Z,5.10
2022-11-10T22:08:45.130Z,5.07
2022-11-10T22:11:33.718Z,5.20
2022-11-10T22:14:20.761Z,5.63
2022-11-10T22:17:09.632Z,6.40
2022-11-10T22:19:41.133Z,5.37
2022-11-10T22:22:16.934Z,5.17
2022-11-10T22:24:47.953Z,5.47
2022-11-10T22:27:22.396Z,8.30
2022-11-10T22:29:54.929Z,4.97
2022-11-10T22:32:27.999Z,6.17
2022-11-10T22:34:59.045Z,5.60
2022-11-10T22:37:34.410Z,7.80
2022-11-10T22:40:21.971Z,5.50
2022-11-10T22:43:09.184Z,5.23
2022-11-10T22:45:40.194Z,4.90
2022-11-10T22:48:30.584Z,11.97
2022-11-10T22:51:02.579Z,4.67
2022-11-10T22:53:40.497Z,5.37
2022-11-10T22:56:11.872Z,5.60
2022-11-10T22:58:43.476Z,8.17
2022-11-10T23:01:15.371Z,5.97
2022-11-10T23:03:49.616Z,6.93
2022-11-10T23:06:21.480Z,5.57
2022-11-10T23:08:55.958Z,7.43
2022-11-10T23:11:29.481Z,6.47
2022-11-10T23:14:01.267Z,6.60
2022-11-10T23:16:35.472Z,4.33
2022-11-10T23:19:07.323Z,5.57
2022-11-10T23:21:38.397Z,5.73
2022-11-10T23:24:14.511Z,8.07
2022-11-10T23:26:46.560Z,6.87
2022-11-10T23:29:18.169Z,5.47
2022-11-10T23:31:49.287Z,5.87
2022-11-10T23:34:20.782Z,4.27
2022-11-10T23:36:52.979Z,5.13
2022-11-10T23:39:26.731Z,5.20
2022-11-10T23:41:58.863Z,4.83
2022-11-10T23:44:29.875Z,6.23
2022-11-10T23:47:04.673Z,14.27
2022-11-10T23:49:36.296Z,7.10
2022-11-10T23:52:07.785Z,7.77
2022-11-10T23:54:40.862Z,10.47
2022-11-10T23:57:12.713Z,7.70
2022-11-10T23:59:44.367Z,12.73
